sensor_id;sensor_type;location;lat;lon;timestamp;P1;durP1;ratioP1;P2;durP2;ratioP2
53052;SDS011;38934;52.690;6.184;2023-09-08T00:01:51;13.43;;;10.48;;
53052;SDS011;38934;52.690;6.184;2023-09-08T00:04:17;15.00;;;10.07;;
53052;SDS011;38934;52.690;6.184;2023-09-08T00:06:44;13.23;;;10.50;;
53052;SDS011;38934;52.690;6.184;2023-09-08T00:09:11;12.23;;;10.23;;
53052;SDS011;38934;52.690;6.184;2023-09-08T00:11:36;11.85;;;10.23;;
53052;SDS011;38934;52.690;6.184;2023-09-08T00:14:02;12.77;;;9.70;;
53052;SDS011;38934;52.690;6.184;2023-09-08T00:16:28;12.45;;;9.95;;
53052;SDS011;38934;52.690;6.184;2023-09-08T00:18:55;11.80;;;9.70;;
53052;SDS011;38934;52.690;6.184;2023-09-08T00:21:22;12.15;;;9.77;;
53052;SDS011;38934;52.690;6.184;2023-09-08T00:23:47;12.50;;;10.82;;
53052;SDS011;38934;52.690;6.184;2023-09-08T00:26:13;13.25;;;10.45;;
53052;SDS011;38934;52.690;6.184;2023-09-08T00:28:38;14.45;;;9.88;;
53052;SDS011;38934;52.690;6.184;2023-09-08T00:31:04;11.88;;;9.80;;
53052;SDS011;38934;52.690;6.184;2023-09-08T00:33:30;15.48;;;11.55;;
53052;SDS011;38934;52.690;6.184;2023-09-08T00:35:55;10.52;;;9.43;;
53052;SDS011;38934;52.690;6.184;2023-09-08T00:38:22;13.25;;;11.63;;
53052;SDS011;38934;52.690;6.184;2023-09-08T00:40:48;12.80;;;10.30;;
53052;SDS011;38934;52.690;6.184;2023-09-08T00:43:14;13.52;;;11.20;;
53052;SDS011;38934;52.690;6.184;2023-09-08T00:45:40;13.75;;;10.93;;
53052;SDS011;38934;52.690;6.184;2023-09-08T00:48:07;16.98;;;11.25;;
53052;SDS011;38934;52.690;6.184;2023-09-08T00:50:34;14.15;;;11.27;;
53052;SDS011;38934;52.690;6.184;2023-09-08T00:53:02;14.18;;;11.63;;
53052;SDS011;38934;52.690;6.184;2023-09-08T00:55:29;13.10;;;10.90;;
53052;SDS011;38934;52.690;6.184;2023-09-08T00:57:55;12.07;;;10.80;;
53052;SDS011;38934;52.690;6.184;2023-09-08T01:00:21;13.80;;;10.93;;
53052;SDS011;38934;52.690;6.184;2023-09-08T01:02:47;15.63;;;11.77;;
53052;SDS011;38934;52.690;6.184;2023-09-08T01:05:13;12.93;;;10.30;;
53052;SDS011;38934;52.690;6.184;2023-09-08T01:07:39;13.90;;;10.73;;
53052;SDS011;38934;52.690;6.184;2023-09-08T01:10:06;13.88;;;11.70;;
53052;SDS011;38934;52.690;6.184;2023-09-08T01:12:32;13.65;;;11.10;;
53052;SDS011;38934;52.690;6.184;2023-09-08T01:15:00;14.35;;;11.50;;
53052;SDS011;38934;52.690;6.184;2023-09-08T01:17:29;11.32;;;10.20;;
53052;SDS011;38934;52.690;6.184;2023-09-08T01:19:55;14.90;;;11.90;;
53052;SDS011;38934;52.690;6.184;2023-09-08T01:22:42;15.02;;;11.23;;
53052;SDS011;38934;52.690;6.184;2023-09-08T01:25:29;13.32;;;11.32;;
53052;SDS011;38934;52.690;6.184;2023-09-08T01:27:58;14.75;;;12.93;;
53052;SDS011;38934;52.690;6.184;2023-09-08T01:30:28;16.70;;;12.05;;
53052;SDS011;38934;52.690;6.184;2023-09-08T01:32:57;15.65;;;12.25;;
53052;SDS011;38934;52.690;6.184;2023-09-08T01:35:23;13.10;;;11.70;;
53052;SDS011;38934;52.690;6.184;2023-09-08T01:37:49;13.00;;;11.65;;
53052;SDS011;38934;52.690;6.184;2023-09-08T01:40:15;13.63;;;12.07;;
53052;SDS011;38934;52.690;6.184;2023-09-08T01:42:41;14.63;;;12.50;;
53052;SDS011;38934;52.690;6.184;2023-09-08T01:45:07;15.52;;;12.43;;
53052;SDS011;38934;52.690;6.184;2023-09-08T01:47:33;16.25;;;13.40;;
53052;SDS011;38934;52.690;6.184;2023-09-08T01:50:00;14.77;;;13.18;;
53052;SDS011;38934;52.690;6.184;2023-09-08T01:52:26;16.10;;;14.02;;
53052;SDS011;38934;52.690;6.184;2023-09-08T01:54:52;15.48;;;12.93;;
53052;SDS011;38934;52.690;6.184;2023-09-08T01:57:18;15.52;;;13.82;;
53052;SDS011;38934;52.690;6.184;2023-09-08T01:59:44;14.45;;;12.82;;
53052;SDS011;38934;52.690;6.184;2023-09-08T02:02:13;17.52;;;13.43;;
53052;SDS011;38934;52.690;6.184;2023-09-08T02:04:38;16.55;;;13.82;;
53052;SDS011;38934;52.690;6.184;2023-09-08T02:07:04;15.57;;;13.18;;
53052;SDS011;38934;52.690;6.184;2023-09-08T02:09:32;16.95;;;13.70;;
53052;SDS011;38934;52.690;6.184;2023-09-08T02:11:59;15.93;;;12.27;;
53052;SDS011;38934;52.690;6.184;2023-09-08T02:14:25;16.10;;;13.38;;
53052;SDS011;38934;52.690;6.184;2023-09-08T02:16:51;18.20;;;13.15;;
53052;SDS011;38934;52.690;6.184;2023-09-08T02:19:16;15.45;;;13.82;;
53052;SDS011;38934;52.690;6.184;2023-09-08T02:21:42;13.65;;;12.25;;
53052;SDS011;38934;52.690;6.184;2023-09-08T02:24:08;14.55;;;13.05;;
53052;SDS011;38934;52.690;6.184;2023-09-08T02:26:33;15.40;;;13.63;;
53052;SDS011;38934;52.690;6.184;2023-09-08T02:28:59;14.35;;;12.40;;
53052;SDS011;38934;52.690;6.184;2023-09-08T02:31:28;16.98;;;13.95;;
53052;SDS011;38934;52.690;6.184;2023-09-08T02:33:53;16.65;;;14.18;;
53052;SDS011;38934;52.690;6.184;2023-09-08T02:36:19;15.50;;;12.68;;
53052;SDS011;38934;52.690;6.184;2023-09-08T02:38:50;16.75;;;12.93;;
53052;SDS011;38934;52.690;6.184;2023-09-08T02:41:16;14.13;;;12.40;;
53052;SDS011;38934;52.690;6.184;2023-09-08T02:43:42;14.52;;;12.07;;
53052;SDS011;38934;52.690;6.184;2023-09-08T02:46:08;14.52;;;13.02;;
53052;SDS011;38934;52.690;6.184;2023-09-08T02:48:34;14.02;;;12.68;;
53052;SDS011;38934;52.690;6.184;2023-09-08T02:51:00;17.05;;;14.30;;
53052;SDS011;38934;52.690;6.184;2023-09-08T02:53:26;19.58;;;13.77;;
53052;SDS011;38934;52.690;6.184;2023-09-08T02:55:54;16.75;;;13.80;;
53052;SDS011;38934;52.690;6.184;2023-09-08T02:58:20;15.55;;;12.43;;
53052;SDS011;38934;52.690;6.184;2023-09-08T03:00:45;15.25;;;13.05;;
53052;SDS011;38934;52.690;6.184;2023-09-08T03:03:11;15.43;;;13.32;;
53052;SDS011;38934;52.690;6.184;2023-09-08T03:05:37;18.10;;;14.23;;
53052;SDS011;38934;52.690;6.184;2023-09-08T03:08:02;17.05;;;13.20;;
53052;SDS011;38934;52.690;6.184;2023-09-08T03:10:28;16.40;;;13.65;;
53052;SDS011;38934;52.690;6.184;2023-09-08T03:12:54;16.67;;;13.80;;
53052;SDS011;38934;52.690;6.184;2023-09-08T03:15:20;16.48;;;14.32;;
53052;SDS011;38934;52.690;6.184;2023-09-08T03:17:46;18.98;;;14.55;;
53052;SDS011;38934;52.690;6.184;2023-09-08T03:20:11;18.15;;;14.18;;
53052;SDS011;38934;52.690;6.184;2023-09-08T03:22:38;19.55;;;15.25;;
53052;SDS011;38934;52.690;6.184;2023-09-08T03:25:04;16.08;;;14.15;;
53052;SDS011;38934;52.690;6.184;2023-09-08T03:27:30;16.38;;;13.80;;
53052;SDS011;38934;52.690;6.184;2023-09-08T03:29:56;16.13;;;14.38;;
53052;SDS011;38934;52.690;6.184;2023-09-08T03:32:21;17.35;;;14.48;;
53052;SDS011;38934;52.690;6.184;2023-09-08T03:34:47;16.90;;;14.90;;
53052;SDS011;38934;52.690;6.184;2023-09-08T03:37:13;14.70;;;12.73;;
53052;SDS011;38934;52.690;6.184;2023-09-08T03:39:40;18.13;;;14.07;;
53052;SDS011;38934;52.690;6.184;2023-09-08T03:42:06;18.90;;;15.75;;
53052;SDS011;38934;52.690;6.184;2023-09-08T03:44:31;20.48;;;15.40;;
53052;SDS011;38934;52.690;6.184;2023-09-08T03:46:57;15.25;;;13.68;;
53052;SDS011;38934;52.690;6.184;2023-09-08T03:49:23;17.05;;;15.25;;
53052;SDS011;38934;52.690;6.184;2023-09-08T03:51:48;18.38;;;15.50;;
53052;SDS011;38934;52.690;6.184;2023-09-08T03:54:14;16.50;;;14.50;;
53052;SDS011;38934;52.690;6.184;2023-09-08T03:56:40;15.07;;;12.90;;
53052;SDS011;38934;52.690;6.184;2023-09-08T03:59:05;17.70;;;15.77;;
53052;SDS011;38934;52.690;6.184;2023-09-08T04:01:31;17.75;;;14.40;;
53052;SDS011;38934;52.690;6.184;2023-09-08T04:03:56;17.67;;;14.43;;
53052;SDS011;38934;52.690;6.184;2023-09-08T04:06:22;20.60;;;15.90;;
53052;SDS011;38934;52.690;6.184;2023-09-08T04:08:49;20.40;;;16.05;;
53052;SDS011;38934;52.690;6.184;2023-09-08T04:11:15;15.60;;;13.75;;
53052;SDS011;38934;52.690;6.184;2023-09-08T04:13:40;16.90;;;13.73;;
53052;SDS011;38934;52.690;6.184;2023-09-08T04:16:06;19.33;;;15.43;;
53052;SDS011;38934;52.690;6.184;2023-09-08T04:18:31;20.50;;;16.10;;
53052;SDS011;38934;52.690;6.184;2023-09-08T04:20:57;18.70;;;15.10;;
53052;SDS011;38934;52.690;6.184;2023-09-08T04:23:22;18.92;;;16.80;;
53052;SDS011;38934;52.690;6.184;2023-09-08T04:25:48;17.65;;;15.13;;
53052;SDS011;38934;52.690;6.184;2023-09-08T04:28:13;16.58;;;14.70;;
53052;SDS011;38934;52.690;6.184;2023-09-08T04:30:39;19.63;;;15.68;;
53052;SDS011;38934;52.690;6.184;2023-09-08T04:33:05;20.70;;;16.67;;
53052;SDS011;38934;52.690;6.184;2023-09-08T04:35:30;16.13;;;13.88;;
53052;SDS011;38934;52.690;6.184;2023-09-08T04:37:56;19.17;;;16.45;;
53052;SDS011;38934;52.690;6.184;2023-09-08T04:40:22;19.30;;;16.20;;
53052;SDS011;38934;52.690;6.184;2023-09-08T04:42:48;19.55;;;17.15;;
53052;SDS011;38934;52.690;6.184;2023-09-08T04:45:13;17.92;;;15.50;;
53052;SDS011;38934;52.690;6.184;2023-09-08T04:47:39;16.13;;;14.40;;
53052;SDS011;38934;52.690;6.184;2023-09-08T04:50:05;17.42;;;14.75;;
53052;SDS011;38934;52.690;6.184;2023-09-08T04:52:30;17.27;;;15.05;;
53052;SDS011;38934;52.690;6.184;2023-09-08T04:54:56;17.45;;;14.25;;
53052;SDS011;38934;52.690;6.184;2023-09-08T04:57:22;16.05;;;13.85;;
53052;SDS011;38934;52.690;6.184;2023-09-08T04:59:47;18.92;;;15.45;;
53052;SDS011;38934;52.690;6.184;2023-09-08T05:02:13;18.48;;;15.88;;
53052;SDS011;38934;52.690;6.184;2023-09-08T05:04:40;19.73;;;17.08;;
53052;SDS011;38934;52.690;6.184;2023-09-08T05:07:05;19.42;;;16.73;;
53052;SDS011;38934;52.690;6.184;2023-09-08T05:09:31;19.67;;;16.40;;
53052;SDS011;38934;52.690;6.184;2023-09-08T05:11:58;18.48;;;16.55;;
53052;SDS011;38934;52.690;6.184;2023-09-08T05:14:25;15.50;;;13.85;;
53052;SDS011;38934;52.690;6.184;2023-09-08T05:16:50;17.92;;;16.05;;
53052;SDS011;38934;52.690;6.184;2023-09-08T05:19:20;20.33;;;17.55;;
53052;SDS011;38934;52.690;6.184;2023-09-08T05:21:46;19.48;;;16.73;;
53052;SDS011;38934;52.690;6.184;2023-09-08T05:24:11;17.67;;;14.63;;
53052;SDS011;38934;52.690;6.184;2023-09-08T05:26:37;19.27;;;15.75;;
53052;SDS011;38934;52.690;6.184;2023-09-08T05:29:06;17.75;;;15.45;;
53052;SDS011;38934;52.690;6.184;2023-09-08T05:31:31;20.85;;;16.50;;
53052;SDS011;38934;52.690;6.184;2023-09-08T05:33:57;17.88;;;14.68;;
53052;SDS011;38934;52.690;6.184;2023-09-08T05:36:23;19.95;;;16.38;;
53052;SDS011;38934;52.690;6.184;2023-09-08T05:38:48;20.50;;;16.75;;
53052;SDS011;38934;52.690;6.184;2023-09-08T05:41:14;18.13;;;15.02;;
53052;SDS011;38934;52.690;6.184;2023-09-08T05:43:40;19.52;;;15.90;;
53052;SDS011;38934;52.690;6.184;2023-09-08T05:46:05;19.38;;;16.88;;
53052;SDS011;38934;52.690;6.184;2023-09-08T05:48:31;23.10;;;16.88;;
53052;SDS011;38934;52.690;6.184;2023-09-08T05:50:56;17.80;;;15.32;;
53052;SDS011;38934;52.690;6.184;2023-09-08T05:53:22;18.95;;;16.58;;
53052;SDS011;38934;52.690;6.184;2023-09-08T05:55:48;19.50;;;16.02;;
53052;SDS011;38934;52.690;6.184;2023-09-08T05:58:13;19.88;;;15.98;;
53052;SDS011;38934;52.690;6.184;2023-09-08T06:00:39;17.52;;;15.60;;
53052;SDS011;38934;52.690;6.184;2023-09-08T06:03:05;18.35;;;15.55;;
53052;SDS011;38934;52.690;6.184;2023-09-08T06:05:30;20.20;;;17.23;;
53052;SDS011;38934;52.690;6.184;2023-09-08T06:07:56;18.42;;;16.42;;
53052;SDS011;38934;52.690;6.184;2023-09-08T06:10:21;21.13;;;16.13;;
53052;SDS011;38934;52.690;6.184;2023-09-08T06:12:47;20.63;;;16.13;;
53052;SDS011;38934;52.690;6.184;2023-09-08T06:15:15;19.63;;;16.65;;
53052;SDS011;38934;52.690;6.184;2023-09-08T06:17:42;17.83;;;15.43;;
53052;SDS011;38934;52.690;6.184;2023-09-08T06:20:07;20.30;;;17.60;;
53052;SDS011;38934;52.690;6.184;2023-09-08T06:22:33;18.00;;;16.10;;
53052;SDS011;38934;52.690;6.184;2023-09-08T06:24:59;20.92;;;16.40;;
53052;SDS011;38934;52.690;6.184;2023-09-08T06:27:25;19.75;;;17.25;;
53052;SDS011;38934;52.690;6.184;2023-09-08T06:29:51;17.92;;;15.90;;
53052;SDS011;38934;52.690;6.184;2023-09-08T06:32:16;20.75;;;16.15;;
53052;SDS011;38934;52.690;6.184;2023-09-08T06:34:42;20.42;;;17.00;;
53052;SDS011;38934;52.690;6.184;2023-09-08T06:37:08;17.85;;;15.75;;
53052;SDS011;38934;52.690;6.184;2023-09-08T06:39:34;18.48;;;16.02;;
53052;SDS011;38934;52.690;6.184;2023-09-08T06:41:59;19.13;;;16.33;;
53052;SDS011;38934;52.690;6.184;2023-09-08T06:44:25;17.25;;;15.43;;
53052;SDS011;38934;52.690;6.184;2023-09-08T06:46:51;20.65;;;17.00;;
53052;SDS011;38934;52.690;6.184;2023-09-08T06:49:16;19.52;;;16.15;;
53052;SDS011;38934;52.690;6.184;2023-09-08T06:51:42;18.40;;;16.13;;
53052;SDS011;38934;52.690;6.184;2023-09-08T06:54:08;19.95;;;15.63;;
53052;SDS011;38934;52.690;6.184;2023-09-08T06:56:35;21.17;;;16.17;;
53052;SDS011;38934;52.690;6.184;2023-09-08T06:59:01;17.52;;;14.77;;
53052;SDS011;38934;52.690;6.184;2023-09-08T07:01:26;18.20;;;15.98;;
53052;SDS011;38934;52.690;6.184;2023-09-08T07:03:53;17.25;;;15.27;;
53052;SDS011;38934;52.690;6.184;2023-09-08T07:06:18;18.15;;;15.40;;
53052;SDS011;38934;52.690;6.184;2023-09-08T07:08:47;18.63;;;15.57;;
53052;SDS011;38934;52.690;6.184;2023-09-08T07:11:15;18.35;;;15.70;;
53052;SDS011;38934;52.690;6.184;2023-09-08T07:13:41;20.75;;;15.00;;
53052;SDS011;38934;52.690;6.184;2023-09-08T07:16:06;16.83;;;14.98;;
53052;SDS011;38934;52.690;6.184;2023-09-08T07:18:32;16.67;;;14.93;;
53052;SDS011;38934;52.690;6.184;2023-09-08T07:21:01;15.95;;;13.70;;
53052;SDS011;38934;52.690;6.184;2023-09-08T07:23:27;17.00;;;13.70;;
53052;SDS011;38934;52.690;6.184;2023-09-08T07:25:53;17.48;;;13.10;;
53052;SDS011;38934;52.690;6.184;2023-09-08T07:28:18;16.38;;;13.07;;
53052;SDS011;38934;52.690;6.184;2023-09-08T07:30:44;14.70;;;13.00;;
53052;SDS011;38934;52.690;6.184;2023-09-08T07:33:09;16.45;;;13.40;;
53052;SDS011;38934;52.690;6.184;2023-09-08T07:35:38;17.98;;;13.75;;
53052;SDS011;38934;52.690;6.184;2023-09-08T07:38:05;18.05;;;12.77;;
53052;SDS011;38934;52.690;6.184;2023-09-08T07:40:32;14.88;;;12.82;;
53052;SDS011;38934;52.690;6.184;2023-09-08T07:42:58;14.35;;;12.55;;
53052;SDS011;38934;52.690;6.184;2023-09-08T07:45:23;16.73;;;13.30;;
53052;SDS011;38934;52.690;6.184;2023-09-08T07:47:49;14.77;;;12.75;;
53052;SDS011;38934;52.690;6.184;2023-09-08T07:50:22;13.40;;;11.95;;
53052;SDS011;38934;52.690;6.184;2023-09-08T07:52:52;14.90;;;12.63;;
53052;SDS011;38934;52.690;6.184;2023-09-08T07:55:19;14.30;;;12.20;;
53052;SDS011;38934;52.690;6.184;2023-09-08T07:57:48;16.17;;;13.13;;
53052;SDS011;38934;52.690;6.184;2023-09-08T08:00:15;14.35;;;12.57;;
53052;SDS011;38934;52.690;6.184;2023-09-08T08:02:44;15.07;;;11.90;;
53052;SDS011;38934;52.690;6.184;2023-09-08T08:05:12;14.98;;;11.40;;
53052;SDS011;38934;52.690;6.184;2023-09-08T08:07:38;14.77;;;11.93;;
53052;SDS011;38934;52.690;6.184;2023-09-08T08:10:04;12.77;;;11.30;;
53052;SDS011;38934;52.690;6.184;2023-09-08T08:12:33;14.70;;;11.57;;
53052;SDS011;38934;52.690;6.184;2023-09-08T08:14:59;17.10;;;11.75;;
53052;SDS011;38934;52.690;6.184;2023-09-08T08:17:25;12.35;;;10.63;;
53052;SDS011;38934;52.690;6.184;2023-09-08T08:19:52;13.15;;;10.98;;
53052;SDS011;38934;52.690;6.184;2023-09-08T08:22:19;13.02;;;10.68;;
53052;SDS011;38934;52.690;6.184;2023-09-08T08:24:44;13.63;;;10.05;;
53052;SDS011;38934;52.690;6.184;2023-09-08T08:27:10;13.98;;;10.60;;
53052;SDS011;38934;52.690;6.184;2023-09-08T08:29:36;14.98;;;10.15;;
53052;SDS011;38934;52.690;6.184;2023-09-08T08:32:01;12.82;;;9.45;;
53052;SDS011;38934;52.690;6.184;2023-09-08T08:34:27;13.00;;;9.05;;
53052;SDS011;38934;52.690;6.184;2023-09-08T08:36:53;12.57;;;9.30;;
53052;SDS011;38934;52.690;6.184;2023-09-08T08:39:19;11.90;;;9.18;;
53052;SDS011;38934;52.690;6.184;2023-09-08T08:41:45;9.80;;;8.80;;
53052;SDS011;38934;52.690;6.184;2023-09-08T08:44:10;10.63;;;8.90;;
53052;SDS011;38934;52.690;6.184;2023-09-08T08:46:36;14.90;;;8.85;;
53052;SDS011;38934;52.690;6.184;2023-09-08T08:49:03;9.95;;;8.95;;
53052;SDS011;38934;52.690;6.184;2023-09-08T08:51:32;13.18;;;8.48;;
53052;SDS011;38934;52.690;6.184;2023-09-08T08:54:01;10.60;;;9.18;;
53052;SDS011;38934;52.690;6.184;2023-09-08T08:56:29;14.05;;;9.63;;
53052;SDS011;38934;52.690;6.184;2023-09-08T08:58:57;14.20;;;9.57;;
53052;SDS011;38934;52.690;6.184;2023-09-08T09:01:23;12.55;;;9.48;;
53052;SDS011;38934;52.690;6.184;2023-09-08T09:03:51;12.23;;;9.13;;
53052;SDS011;38934;52.690;6.184;2023-09-08T09:06:17;11.00;;;9.20;;
53052;SDS011;38934;52.690;6.184;2023-09-08T09:08:43;13.35;;;10.38;;
53052;SDS011;38934;52.690;6.184;2023-09-08T09:11:10;10.27;;;8.65;;
53052;SDS011;38934;52.690;6.184;2023-09-08T09:13:36;10.90;;;8.98;;
53052;SDS011;38934;52.690;6.184;2023-09-08T09:16:02;13.63;;;9.25;;
53052;SDS011;38934;52.690;6.184;2023-09-08T09:18:29;14.65;;;9.65;;
53052;SDS011;38934;52.690;6.184;2023-09-08T09:20:56;11.43;;;8.98;;
53052;SDS011;38934;52.690;6.184;2023-09-08T09:23:30;14.88;;;8.93;;
53052;SDS011;38934;52.690;6.184;2023-09-08T09:26:00;14.15;;;8.70;;
53052;SDS011;38934;52.690;6.184;2023-09-08T09:28:28;12.18;;;10.02;;
53052;SDS011;38934;52.690;6.184;2023-09-08T09:30:54;12.43;;;9.27;;
53052;SDS011;38934;52.690;6.184;2023-09-08T09:33:21;12.60;;;8.93;;
53052;SDS011;38934;52.690;6.184;2023-09-08T09:35:48;13.15;;;9.48;;
53052;SDS011;38934;52.690;6.184;2023-09-08T09:38:16;11.15;;;9.25;;
53052;SDS011;38934;52.690;6.184;2023-09-08T09:40:46;12.95;;;9.68;;
53052;SDS011;38934;52.690;6.184;2023-09-08T09:43:13;12.80;;;9.38;;
53052;SDS011;38934;52.690;6.184;2023-09-08T09:45:40;14.35;;;9.80;;
53052;SDS011;38934;52.690;6.184;2023-09-08T09:48:07;11.63;;;9.45;;
53052;SDS011;38934;52.690;6.184;2023-09-08T09:53:01;9.35;;;8.35;;
53052;SDS011;38934;52.690;6.184;2023-09-08T09:55:32;10.45;;;8.80;;
53052;SDS011;38934;52.690;6.184;2023-09-08T09:58:01;11.07;;;9.13;;
53052;SDS011;38934;52.690;6.184;2023-09-08T10:00:29;12.50;;;9.07;;
53052;SDS011;38934;52.690;6.184;2023-09-08T10:02:57;13.40;;;9.18;;
53052;SDS011;38934;52.690;6.184;2023-09-08T10:05:23;12.48;;;8.77;;
53052;SDS011;38934;52.690;6.184;2023-09-08T10:07:50;9.85;;;8.32;;
53052;SDS011;38934;52.690;6.184;2023-09-08T10:10:17;16.63;;;8.43;;
53052;SDS011;38934;52.690;6.184;2023-09-08T10:12:45;13.40;;;7.75;;
53052;SDS011;38934;52.690;6.184;2023-09-08T10:15:14;9.38;;;6.93;;
53052;SDS011;38934;52.690;6.184;2023-09-08T10:17:43;11.90;;;7.85;;
53052;SDS011;38934;52.690;6.184;2023-09-08T10:20:09;12.20;;;7.55;;
53052;SDS011;38934;52.690;6.184;2023-09-08T10:22:41;11.23;;;7.28;;
53052;SDS011;38934;52.690;6.184;2023-09-08T10:25:08;10.88;;;7.03;;
53052;SDS011;38934;52.690;6.184;2023-09-08T10:27:34;10.57;;;7.05;;
53052;SDS011;38934;52.690;6.184;2023-09-08T10:30:02;8.80;;;6.53;;
53052;SDS011;38934;52.690;6.184;2023-09-08T10:32:30;9.98;;;6.68;;
53052;SDS011;38934;52.690;6.184;2023-09-08T10:35:00;9.45;;;6.55;;
53052;SDS011;38934;52.690;6.184;2023-09-08T10:37:28;7.22;;;6.05;;
53052;SDS011;38934;52.690;6.184;2023-09-08T10:39:54;7.70;;;6.38;;
53052;SDS011;38934;52.690;6.184;2023-09-08T10:42:24;10.52;;;6.80;;
53052;SDS011;38934;52.690;6.184;2023-09-08T10:44:56;8.15;;;6.70;;
53052;SDS011;38934;52.690;6.184;2023-09-08T10:47:23;9.25;;;6.93;;
53052;SDS011;38934;52.690;6.184;2023-09-08T10:49:50;9.60;;;6.35;;
53052;SDS011;38934;52.690;6.184;2023-09-08T10:52:20;8.15;;;5.90;;
53052;SDS011;38934;52.690;6.184;2023-09-08T10:54:48;7.18;;;6.22;;
53052;SDS011;38934;52.690;6.184;2023-09-08T10:57:16;6.95;;;6.05;;
53052;SDS011;38934;52.690;6.184;2023-09-08T10:59:51;10.15;;;6.35;;
53052;SDS011;38934;52.690;6.184;2023-09-08T11:05:10;9.75;;;6.53;;
53052;SDS011;38934;52.690;6.184;2023-09-08T11:07:41;7.78;;;6.38;;
53052;SDS011;38934;52.690;6.184;2023-09-08T11:10:08;7.28;;;6.00;;
53052;SDS011;38934;52.690;6.184;2023-09-08T11:12:35;11.05;;;5.90;;
53052;SDS011;38934;52.690;6.184;2023-09-08T11:15:02;9.57;;;6.32;;
53052;SDS011;38934;52.690;6.184;2023-09-08T11:17:33;7.95;;;6.25;;
53052;SDS011;38934;52.690;6.184;2023-09-08T11:20:01;9.63;;;6.32;;
53052;SDS011;38934;52.690;6.184;2023-09-08T11:22:35;10.02;;;6.80;;
53052;SDS011;38934;52.690;6.184;2023-09-08T11:25:02;12.27;;;6.47;;
53052;SDS011;38934;52.690;6.184;2023-09-08T11:27:29;9.57;;;6.10;;
53052;SDS011;38934;52.690;6.184;2023-09-08T11:29:56;7.70;;;6.15;;
53052;SDS011;38934;52.690;6.184;2023-09-08T11:32:22;7.60;;;6.35;;
53052;SDS011;38934;52.690;6.184;2023-09-08T11:34:48;11.55;;;6.22;;
53052;SDS011;38934;52.690;6.184;2023-09-08T11:37:14;10.65;;;5.90;;
53052;SDS011;38934;52.690;6.184;2023-09-08T11:39:43;8.60;;;6.22;;
53052;SDS011;38934;52.690;6.184;2023-09-08T11:42:12;9.20;;;6.30;;
53052;SDS011;38934;52.690;6.184;2023-09-08T11:44:39;8.07;;;6.05;;
53052;SDS011;38934;52.690;6.184;2023-09-08T11:47:06;9.00;;;5.55;;
53052;SDS011;38934;52.690;6.184;2023-09-08T11:49:37;7.70;;;6.05;;
53052;SDS011;38934;52.690;6.184;2023-09-08T11:52:04;7.05;;;5.85;;
53052;SDS011;38934;52.690;6.184;2023-09-08T11:54:30;8.10;;;6.32;;
53052;SDS011;38934;52.690;6.184;2023-09-08T11:57:00;9.75;;;5.72;;
53052;SDS011;38934;52.690;6.184;2023-09-08T11:59:28;7.18;;;5.88;;
53052;SDS011;38934;52.690;6.184;2023-09-08T12:01:56;9.18;;;5.65;;
53052;SDS011;38934;52.690;6.184;2023-09-08T12:04:22;8.00;;;5.60;;
53052;SDS011;38934;52.690;6.184;2023-09-08T12:06:48;9.52;;;5.45;;
53052;SDS011;38934;52.690;6.184;2023-09-08T12:09:16;6.25;;;5.47;;
53052;SDS011;38934;52.690;6.184;2023-09-08T12:11:42;7.20;;;5.78;;
53052;SDS011;38934;52.690;6.184;2023-09-08T12:14:11;10.23;;;5.55;;
53052;SDS011;38934;52.690;6.184;2023-09-08T12:16:38;7.85;;;5.57;;
53052;SDS011;38934;52.690;6.184;2023-09-08T12:19:05;7.75;;;5.18;;
53052;SDS011;38934;52.690;6.184;2023-09-08T12:21:31;7.40;;;5.45;;
53052;SDS011;38934;52.690;6.184;2023-09-08T12:24:00;8.57;;;5.25;;
53052;SDS011;38934;52.690;6.184;2023-09-08T12:26:25;8.63;;;5.63;;
53052;SDS011;38934;52.690;6.184;2023-09-08T12:28:51;9.75;;;7.10;;
53052;SDS011;38934;52.690;6.184;2023-09-08T12:31:17;10.32;;;6.05;;
53052;SDS011;38934;52.690;6.184;2023-09-08T12:33:43;7.53;;;5.10;;
53052;SDS011;38934;52.690;6.184;2023-09-08T12:36:12;7.45;;;5.80;;
53052;SDS011;38934;52.690;6.184;2023-09-08T12:38:39;8.10;;;5.78;;
53052;SDS011;38934;52.690;6.184;2023-09-08T12:41:05;9.88;;;5.45;;
53052;SDS011;38934;52.690;6.184;2023-09-08T12:43:31;7.85;;;5.18;;
53052;SDS011;38934;52.690;6.184;2023-09-08T12:45:57;7.15;;;4.82;;
53052;SDS011;38934;52.690;6.184;2023-09-08T12:48:22;7.40;;;5.13;;
53052;SDS011;38934;52.690;6.184;2023-09-08T12:50:49;6.70;;;5.00;;
53052;SDS011;38934;52.690;6.184;2023-09-08T12:53:15;8.18;;;4.80;;
53052;SDS011;38934;52.690;6.184;2023-09-08T12:55:43;7.78;;;5.20;;
53052;SDS011;38934;52.690;6.184;2023-09-08T12:58:08;7.78;;;4.90;;
53052;SDS011;38934;52.690;6.184;2023-09-08T13:00:34;8.93;;;4.72;;
53052;SDS011;38934;52.690;6.184;2023-09-08T13:03:00;7.70;;;4.68;;
53052;SDS011;38934;52.690;6.184;2023-09-08T13:05:27;7.10;;;4.68;;
53052;SDS011;38934;52.690;6.184;2023-09-08T13:07:53;7.18;;;4.75;;
53052;SDS011;38934;52.690;6.184;2023-09-08T13:10:18;8.57;;;4.82;;
53052;SDS011;38934;52.690;6.184;2023-09-08T13:12:45;6.40;;;4.93;;
53052;SDS011;38934;52.690;6.184;2023-09-08T13:15:11;7.95;;;4.97;;
53052;SDS011;38934;52.690;6.184;2023-09-08T13:17:36;7.00;;;4.80;;
53052;SDS011;38934;52.690;6.184;2023-09-08T13:20:02;5.70;;;4.80;;
53052;SDS011;38934;52.690;6.184;2023-09-08T13:22:29;7.63;;;4.82;;
53052;SDS011;38934;52.690;6.184;2023-09-08T13:24:54;6.50;;;4.63;;
53052;SDS011;38934;52.690;6.184;2023-09-08T13:27:20;8.18;;;4.95;;
53052;SDS011;38934;52.690;6.184;2023-09-08T13:29:46;6.47;;;4.95;;
53052;SDS011;38934;52.690;6.184;2023-09-08T13:32:11;6.28;;;4.43;;
53052;SDS011;38934;52.690;6.184;2023-09-08T13:34:37;8.90;;;4.57;;
53052;SDS011;38934;52.690;6.184;2023-09-08T13:37:03;6.47;;;4.68;;
53052;SDS011;38934;52.690;6.184;2023-09-08T13:39:29;7.30;;;4.43;;
53052;SDS011;38934;52.690;6.184;2023-09-08T13:41:55;6.22;;;4.95;;
53052;SDS011;38934;52.690;6.184;2023-09-08T13:44:22;6.13;;;4.20;;
53052;SDS011;38934;52.690;6.184;2023-09-08T13:46:49;8.52;;;4.50;;
53052;SDS011;38934;52.690;6.184;2023-09-08T13:49:15;5.43;;;4.63;;
53052;SDS011;38934;52.690;6.184;2023-09-08T13:51:42;5.32;;;4.32;;
53052;SDS011;38934;52.690;6.184;2023-09-08T13:54:08;5.43;;;4.35;;
53052;SDS011;38934;52.690;6.184;2023-09-08T13:56:34;4.80;;;4.30;;
53052;SDS011;38934;52.690;6.184;2023-09-08T13:59:00;7.15;;;4.43;;
53052;SDS011;38934;52.690;6.184;2023-09-08T14:01:26;8.95;;;4.72;;
53052;SDS011;38934;52.690;6.184;2023-09-08T14:03:54;7.13;;;4.80;;
53052;SDS011;38934;52.690;6.184;2023-09-08T14:06:22;5.82;;;4.10;;
53052;SDS011;38934;52.690;6.184;2023-09-08T14:08:49;7.43;;;4.38;;
53052;SDS011;38934;52.690;6.184;2023-09-08T14:11:15;5.80;;;4.18;;
53052;SDS011;38934;52.690;6.184;2023-09-08T14:13:41;6.43;;;4.40;;
53052;SDS011;38934;52.690;6.184;2023-09-08T14:16:08;5.32;;;4.20;;
53052;SDS011;38934;52.690;6.184;2023-09-08T14:18:33;7.30;;;4.60;;
53052;SDS011;38934;52.690;6.184;2023-09-08T14:20:59;6.53;;;4.75;;
53052;SDS011;38934;52.690;6.184;2023-09-08T14:23:25;5.15;;;4.13;;
53052;SDS011;38934;52.690;6.184;2023-09-08T14:25:51;7.10;;;4.50;;
53052;SDS011;38934;52.690;6.184;2023-09-08T14:28:17;6.82;;;4.32;;
53052;SDS011;38934;52.690;6.184;2023-09-08T14:30:43;6.65;;;4.72;;
53052;SDS011;38934;52.690;6.184;2023-09-08T14:33:09;5.60;;;4.22;;